createdAt,value
2022-11-13T00:00:11.937Z,26.75
2022-11-13T00:03:53.143Z,27.25
2022-11-13T00:07:14.890Z,25.75
2022-11-13T00:10:36.582Z,29.00
2022-11-13T00:13:58.390Z,29.00
2022-11-13T00:17:19.899Z,28.00
2022-11-13T00:20:41.554Z,29.00
2022-11-13T00:24:02.657Z,28.25
2022-11-13T00:27:24.099Z,29.50
2022-11-13T00:30:45.599Z,28.75
2022-11-13T00:34:33.110Z,29.00
2022-11-13T00:37:49.959Z,26.75
2022-11-13T00:41:11.923Z,29.00
2022-11-13T00:44:33.025Z,26.75
2022-11-13T00:47:54.732Z,29.50
2022-11-13T00:51:16.038Z,29.25
2022-11-13T00:54:37.833Z,29.00
2022-11-13T00:57:59.140Z,30.00
2022-11-13T01:01:21.311Z,30.00
2022-11-13T01:04:43.042Z,25.50
2022-11-13T01:08:05.503Z,28.00
2022-11-13T01:11:30.243Z,28.50
2022-11-13T01:14:51.833Z,29.00
2022-11-13T01:18:13.410Z,27.50
2022-11-13T01:21:34.598Z,29.00
2022-11-13T01:24:55.939Z,29.00
2022-11-13T01:28:17.567Z,28.00
2022-11-13T01:31:38.715Z,27.00
2022-11-13T01:35:00.701Z,27.00
2022-11-13T01:38:21.663Z,29.00
2022-11-13T01:41:43.774Z,29.00
2022-11-13T01:45:25.113Z,29.00
2022-11-13T01:49:09.688Z,30.00
2022-11-13T01:52:37.579Z,28.25
2022-11-13T01:55:59.565Z,30.00
2022-11-13T01:59:27.325Z,27.50
2022-11-13T02:02:49.314Z,29.75
2022-11-13T02:06:10.650Z,29.25
2022-11-13T02:09:38.003Z,28.50
2022-11-13T02:12:59.354Z,26.75
2022-11-13T02:16:22.559Z,29.25
2022-11-13T02:19:50.815Z,26.25
2022-11-13T02:23:18.183Z,30.00
2022-11-13T02:26:40.152Z,29.00
2022-11-13T02:30:16.361Z,27.25
2022-11-13T02:33:37.369Z,27.25
2022-11-13T02:36:59.208Z,27.75
2022-11-13T02:40:20.695Z,30.00
2022-11-13T02:43:42.689Z,29.00
2022-11-13T02:47:04.150Z,29.00
2022-11-13T02:50:25.452Z,29.00
2022-11-13T02:53:46.380Z,29.00
2022-11-13T02:57:07.641Z,28.50
2022-11-13T03:00:28.653Z,29.00
2022-11-13T03:03:58.475Z,28.75
2022-11-13T03:07:19.731Z,29.00
2022-11-13T03:10:41.352Z,29.00
2022-11-13T03:14:02.654Z,29.50
2022-11-13T03:17:24.394Z,28.50
2022-11-13T03:20:45.600Z,27.00
2022-11-13T03:24:07.480Z,18.75
2022-11-13T03:27:30.999Z,29.00
2022-11-13T03:30:52.404Z,29.25
2022-11-13T03:34:13.733Z,29.00
2022-11-13T03:37:35.500Z,27.25
2022-11-13T03:40:57.057Z,28.75
2022-11-13T03:44:18.308Z,27.25
2022-11-13T03:47:39.613Z,29.00
2022-11-13T03:51:01.516Z,27.00
2022-11-13T03:54:23.012Z,27.25
2022-11-13T03:57:44.203Z,25.50
2022-11-13T04:01:05.398Z,26.50
2022-11-13T04:04:26.968Z,27.50
2022-11-13T04:07:48.394Z,27.25
2022-11-13T04:11:11.595Z,29.50
2022-11-13T04:14:33.069Z,26.00
2022-11-13T04:17:54.542Z,26.00
2022-11-13T04:21:15.732Z,26.00
2022-11-13T04:24:37.017Z,27.25
2022-11-13T04:27:58.223Z,27.50
2022-11-13T04:31:19.897Z,25.50
2022-11-13T04:34:41.182Z,25.00
2022-11-13T04:38:03.306Z,25.00
2022-11-13T04:41:43.589Z,25.75
2022-11-13T04:45:05.827Z,26.50
2022-11-13T04:48:27.599Z,21.50
2022-11-13T04:51:49.433Z,26.50
2022-11-13T04:55:11.591Z,26.50
2022-11-13T04:58:33.458Z,25.00
2022-11-13T05:01:55.943Z,27.00
2022-11-13T05:05:17.772Z,26.00
2022-11-13T05:08:39.881Z,26.00
2022-11-13T05:12:01.497Z,26.75
2022-11-13T05:15:23.079Z,25.00
2022-11-13T05:18:44.338Z,25.00
2022-11-13T05:22:06.444Z,25.00
2022-11-13T05:25:28.288Z,25.00
2022-11-13T05:28:49.418Z,24.75
2022-11-13T05:32:11.054Z,26.50
2022-11-13T05:35:32.767Z,25.00
2022-11-13T05:38:54.092Z,25.00
2022-11-13T05:42:15.182Z,25.00
2022-11-13T05:45:36.536Z,25.00
2022-11-13T05:49:00.587Z,25.50
2022-11-13T05:52:22.191Z,24.00
2022-11-13T05:55:43.617Z,24.00
2022-11-13T05:59:05.693Z,24.00
2022-11-13T06:02:29.845Z,25.00
2022-11-13T06:05:51.790Z,23.25
2022-11-13T06:09:16.016Z,23.25
2022-11-13T06:12:37.483Z,25.00
2022-11-13T06:16:04.489Z,24.75
2022-11-13T06:19:26.894Z,24.50
2022-11-13T06:22:47.953Z,26.00
2022-11-13T06:26:21.471Z,24.75
2022-11-13T06:29:42.680Z,24.50
2022-11-13T06:33:04.459Z,24.00
2022-11-13T06:36:31.620Z,22.75
2022-11-13T06:39:53.188Z,22.75
2022-11-13T06:43:14.648Z,25.00
2022-11-13T06:46:36.584Z,25.00
2022-11-13T06:49:58.005Z,22.25
2022-11-13T06:53:19.686Z,20.00
2022-11-13T06:56:45.646Z,21.00
2022-11-13T07:00:08.270Z,21.75
2022-11-13T07:03:29.252Z,22.75
2022-11-13T07:06:50.741Z,24.50
2022-11-13T07:10:11.863Z,22.75
2022-11-13T07:13:34.063Z,25.00
2022-11-13T07:17:09.215Z,22.25
2022-11-13T07:20:32.608Z,24.50
2022-11-13T07:23:54.027Z,23.75
2022-11-13T07:27:15.322Z,22.00
2022-11-13T07:30:36.419Z,21.25
2022-11-13T07:33:57.900Z,21.25
2022-11-13T07:37:19.393Z,20.50
2022-11-13T07:40:41.014Z,20.00
2022-11-13T07:44:05.445Z,22.00
2022-11-13T07:47:29.430Z,22.75
2022-11-13T07:50:51.543Z,20.00
2022-11-13T07:54:12.937Z,22.25
2022-11-13T07:57:34.532Z,19.50
2022-11-13T08:00:59.076Z,18.75
2022-11-13T08:04:20.179Z,20.25
2022-11-13T08:07:41.737Z,16.25
2022-11-13T08:11:09.110Z,20.75
2022-11-13T08:14:30.597Z,17.50
2022-11-13T08:17:59.589Z,18.50
2022-11-13T08:21:21.558Z,19.25
2022-11-13T08:24:42.751Z,20.75
2022-11-13T08:28:08.726Z,21.25
2022-11-13T08:31:33.260Z,20.00
2022-11-13T08:34:54.829Z,20.75
2022-11-13T08:38:16.032Z,20.50
2022-11-13T08:41:37.742Z,18.75
2022-11-13T08:45:00.043Z,15.50
2022-11-13T08:48:22.597Z,18.00
2022-11-13T08:51:44.012Z,16.50
2022-11-13T08:55:05.818Z,16.00
2022-11-13T08:58:27.168Z,16.25
2022-11-13T09:01:49.261Z,17.50
2022-11-13T09:05:11.388Z,16.00
2022-11-13T09:08:33.404Z,17.00
2022-11-13T09:11:54.628Z,16.50
2022-11-13T09:15:19.113Z,12.50
2022-11-13T09:18:44.464Z,16.00
2022-11-13T09:22:09.380Z,20.00
2022-11-13T09:25:37.025Z,18.75
2022-11-13T09:28:59.094Z,18.25
2022-11-13T09:32:20.652Z,19.75
2022-11-13T09:35:43.592Z,23.25
2022-11-13T09:39:05.732Z,21.25
2022-11-13T09:42:29.327Z,22.75
2022-11-13T09:45:53.888Z,22.50
2022-11-13T09:49:18.651Z,22.50
2022-11-13T09:52:42.637Z,25.00
2022-11-13T09:56:25.194Z,25.00
2022-11-13T09:59:59.504Z,23.00
2022-11-13T10:07:51.636Z,27.00
2022-11-13T10:11:25.451Z,25.00
2022-11-13T10:14:50.563Z,29.75
2022-11-13T10:18:24.328Z,29.75
2022-11-13T10:22:07.689Z,27.00
2022-11-13T10:25:37.460Z,27.00
2022-11-13T10:29:06.512Z,26.50
2022-11-13T10:32:32.244Z,27.50
2022-11-13T10:36:08.421Z,22.00
2022-11-13T10:39:29.777Z,22.25
2022-11-13T10:42:50.964Z,25.00
2022-11-13T10:46:38.644Z,25.00
2022-11-13T10:50:23.242Z,20.50
2022-11-13T10:53:44.969Z,22.75
2022-11-13T10:57:45.834Z,19.25
2022-11-13T11:01:23.446Z,17.75
2022-11-13T11:04:44.948Z,21.00
2022-11-13T11:08:11.517Z,17.00
2022-11-13T11:11:50.964Z,17.00
2022-11-13T11:15:25.373Z,17.25
2022-11-13T11:18:57.869Z,16.50
2022-11-13T11:22:23.240Z,18.00
2022-11-13T11:26:01.550Z,21.00
2022-11-13T11:29:34.108Z,17.50
2022-11-13T11:33:10.366Z,16.25
2022-11-13T11:36:42.507Z,16.00
2022-11-13T11:40:08.310Z,11.25
2022-11-13T11:43:49.653Z,16.75
2022-11-13T11:47:15.843Z,18.50
2022-11-13T11:50:46.750Z,21.00
2022-11-13T11:54:10.528Z,17.50
2022-11-13T11:57:56.333Z,18.00
2022-11-13T12:01:29.666Z,16.00
2022-11-13T12:05:24.220Z,16.00
2022-11-13T12:09:12.145Z,18.25
2022-11-13T12:12:48.892Z,16.00
2022-11-13T12:16:25.828Z,17.00
2022-11-13T12:20:05.369Z,15.25
2022-11-13T12:23:55.060Z,15.50
2022-11-13T12:27:39.216Z,15.00
2022-11-13T12:31:39.595Z,13.00
2022-11-13T12:35:20.166Z,13.00
2022-11-13T12:38:57.391Z,14.25
2022-11-13T12:42:32.610Z,15.50
2022-11-13T12:46:03.653Z,16.00
2022-11-13T12:49:27.505Z,16.25
2022-11-13T12:53:03.287Z,11.50
2022-11-13T12:56:24.502Z,17.50
2022-11-13T12:59:56.698Z,17.75
2022-11-13T13:03:23.384Z,13.00
2022-11-13T13:06:53.654Z,14.25
2022-11-13T13:11:08.952Z,17.50
2022-11-13T13:14:35.844Z,20.50
2022-11-13T13:18:26.460Z,16.75
2022-11-13T13:21:47.770Z,14.00
2022-11-13T13:25:28.657Z,14.00
2022-11-13T13:29:00.882Z,13.75
2022-11-13T13:32:34.681Z,14.75
2022-11-13T13:36:02.250Z,16.75
2022-11-13T13:39:42.069Z,16.75
2022-11-13T13:43:40.137Z,16.25
2022-11-13T13:47:04.856Z,17.00
2022-11-13T13:50:31.640Z,18.00
2022-11-13T13:53:54.196Z,9.50
2022-11-13T13:57:16.989Z,12.00
2022-11-13T14:00:53.187Z,16.25
2022-11-13T14:04:22.275Z,13.00
2022-11-13T14:07:47.338Z,14.75
2022-11-13T14:11:30.070Z,14.00
2022-11-13T14:14:51.525Z,13.75
2022-11-13T14:18:14.966Z,15.00
2022-11-13T14:21:36.678Z,15.75
2022-11-13T14:25:00.815Z,13.25
2022-11-13T14:28:25.579Z,14.00
2022-11-13T14:31:47.107Z,14.25
2022-11-13T14:35:20.120Z,13.00
2022-11-13T14:38:47.625Z,12.75
2022-11-13T14:42:21.896Z,15.00
2022-11-13T14:45:57.518Z,12.75
2022-11-13T14:49:32.837Z,13.25
2022-11-13T14:53:02.565Z,13.00
2022-11-13T14:56:33.412Z,13.50
2022-11-13T14:59:55.145Z,12.00
2022-11-13T15:03:16.794Z,11.00
2022-11-13T15:06:40.443Z,13.00
2022-11-13T15:10:02.312Z,12.00
2022-11-13T15:13:24.090Z,13.50
2022-11-13T15:16:46.732Z,11.00
2022-11-13T15:20:15.032Z,11.00
2022-11-13T15:23:36.963Z,12.00
2022-11-13T15:26:58.443Z,11.75
2022-11-13T15:30:21.385Z,11.00
2022-11-13T15:33:43.171Z,12.50
2022-11-13T15:37:13.516Z,12.25
2022-11-13T15:40:35.247Z,10.00
2022-11-13T15:43:57.297Z,12.00
2022-11-13T15:47:32.931Z,13.00
2022-11-13T15:50:54.722Z,11.00
2022-11-13T15:54:24.150Z,11.00
2022-11-13T15:57:46.504Z,12.00
2022-11-13T16:01:12.063Z,12.75
2022-11-13T16:04:54.923Z,13.00
2022-11-13T16:08:16.762Z,13.00
2022-11-13T16:11:38.427Z,11.25
2022-11-13T16:15:00.097Z,12.50
2022-11-13T16:18:31.581Z,11.75
2022-11-13T16:21:54.415Z,12.50
2022-11-13T16:25:20.613Z,13.75
2022-11-13T16:29:07.643Z,10.00
2022-11-13T16:32:25.148Z,10.75
2022-11-13T16:35:46.808Z,12.25
2022-11-13T16:39:17.178Z,10.50
2022-11-13T16:42:38.414Z,11.75
2022-11-13T16:46:01.308Z,8.00
2022-11-13T16:49:23.169Z,12.00
2022-11-13T16:52:45.536Z,11.00
2022-11-13T16:56:13.211Z,12.00
2022-11-13T16:59:34.924Z,11.00
2022-11-13T17:02:56.641Z,12.00
2022-11-13T17:06:23.655Z,11.00
2022-11-13T17:09:46.499Z,13.00
2022-11-13T17:13:09.868Z,12.25
2022-11-13T17:16:32.417Z,11.00
2022-11-13T17:19:54.602Z,10.00
2022-11-13T17:23:16.784Z,13.75
2022-11-13T17:26:38.844Z,13.75
2022-11-13T17:30:01.501Z,12.75
2022-11-13T17:33:23.581Z,14.25
2022-11-13T17:36:45.141Z,12.25
2022-11-13T17:40:07.194Z,13.00
2022-11-13T17:43:28.956Z,13.00
2022-11-13T17:46:52.565Z,13.25
2022-11-13T17:50:15.758Z,13.00
2022-11-13T17:53:39.515Z,16.25
2022-11-13T17:57:06.004Z,16.00
2022-11-13T18:00:29.708Z,16.50
2022-11-13T18:03:57.179Z,16.00
2022-11-13T18:07:20.582Z,21.00
2022-11-13T18:10:43.577Z,20.75
2022-11-13T18:14:05.803Z,18.00
2022-11-13T18:17:27.701Z,18.00
2022-11-13T18:20:54.078Z,21.50
2022-11-13T18:24:18.867Z,20.75
2022-11-13T18:27:42.304Z,19.25
2022-11-13T18:31:13.730Z,22.25
2022-11-13T18:34:36.107Z,25.00
2022-11-13T18:37:58.375Z,20.75
2022-11-13T18:41:22.262Z,18.00
2022-11-13T18:44:44.900Z,19.00
2022-11-13T18:48:07.997Z,21.75
2022-11-13T18:51:31.131Z,22.75
2022-11-13T18:54:52.678Z,21.75
2022-11-13T18:58:14.749Z,25.00
2022-11-13T19:01:38.808Z,22.25
2022-11-13T19:05:00.473Z,22.50
2022-11-13T19:08:24.063Z,25.00
2022-11-13T19:11:46.665Z,25.25
2022-11-13T19:15:10.461Z,26.00
2022-11-13T19:18:33.674Z,26.00
2022-11-13T19:21:56.414Z,25.25
2022-11-13T19:25:18.288Z,27.00
2022-11-13T19:28:43.438Z,27.75
2022-11-13T19:32:05.552Z,26.75
2022-11-13T19:35:27.718Z,25.00
2022-11-13T19:38:49.548Z,27.00
2022-11-13T19:42:13.128Z,25.25
2022-11-13T19:45:36.360Z,27.00
2022-11-13T19:48:58.874Z,27.00
2022-11-13T19:52:21.190Z,24.00
2022-11-13T19:55:44.206Z,24.50
2022-11-13T19:59:12.346Z,24.50
2022-11-13T20:02:35.537Z,27.75
2022-11-13T20:06:01.669Z,26.25
2022-11-13T20:09:24.724Z,24.50
2022-11-13T20:12:46.969Z,27.50
2022-11-13T20:16:13.100Z,27.00
2022-11-13T20:19:35.551Z,27.00
2022-11-13T20:22:58.844Z,27.00
2022-11-13T20:26:21.441Z,28.25
2022-11-13T20:29:43.108Z,26.50
2022-11-13T20:33:05.351Z,27.00
2022-11-13T20:36:27.850Z,21.75
2022-11-13T20:39:50.136Z,25.00
2022-11-13T20:43:12.690Z,27.00
2022-11-13T20:46:35.604Z,27.25
2022-11-13T20:49:59.409Z,25.25
2022-11-13T20:53:21.716Z,22.50
2022-11-13T20:56:44.881Z,25.50
2022-11-13T21:04:41.408Z,26.50
2022-11-13T21:12:41.027Z,24.75
2022-11-13T21:16:09.162Z,27.25
2022-11-13T21:19:32.116Z,26.25
2022-11-13T21:22:54.978Z,25.25
2022-11-13T21:26:18.112Z,27.00
2022-11-13T21:29:39.389Z,25.00
2022-11-13T21:33:01.844Z,27.50
2022-11-13T21:36:26.816Z,27.00
2022-11-13T21:39:48.788Z,27.50
2022-11-13T21:43:10.361Z,25.00
2022-11-13T21:46:36.774Z,26.00
2022-11-13T21:49:57.808Z,21.00
2022-11-13T21:53:19.474Z,25.50
2022-11-13T21:56:42.229Z,25.00
2022-11-13T22:00:04.406Z,23.25
2022-11-13T22:03:26.674Z,27.00
2022-11-13T22:06:49.305Z,23.75
2022-11-13T22:10:10.614Z,25.00
2022-11-13T22:13:32.154Z,24.75
2022-11-13T22:16:53.607Z,25.00
2022-11-13T22:20:15.624Z,22.50
2022-11-13T22:23:37.205Z,25.00
2022-11-13T22:26:58.769Z,22.50
2022-11-13T22:30:20.083Z,26.75
2022-11-13T22:33:47.752Z,25.75
2022-11-13T22:37:10.364Z,25.75
2022-11-13T22:40:33.475Z,24.75
2022-11-13T22:44:01.618Z,24.25
2022-11-13T22:47:23.104Z,25.50
2022-11-13T22:50:44.462Z,21.00
2022-11-13T22:54:08.845Z,23.25
2022-11-13T22:57:31.969Z,25.75
2022-11-13T23:00:54.506Z,25.00
2022-11-13T23:04:15.729Z,26.00
2022-11-13T23:07:37.188Z,25.00
2022-11-13T23:10:59.214Z,23.50
2022-11-13T23:14:21.239Z,24.25
2022-11-13T23:17:42.600Z,25.00
2022-11-13T23:21:04.989Z,25.50
2022-11-13T23:24:29.573Z,25.00
2022-11-13T23:27:51.469Z,25.00
2022-11-13T23:31:12.985Z,22.50
2022-11-13T23:34:58.166Z,26.00
2022-11-13T23:38:16.252Z,24.25
2022-11-13T23:41:38.566Z,22.25
2022-11-13T23:44:59.987Z,25.00
2022-11-13T23:48:21.682Z,25.00
2022-11-13T23:51:42.699Z,23.75
2022-11-13T23:55:04.129Z,25.00
2022-11-13T23:58:25.448Z,27.00
